createdAt,value
2022-11-17T00:00:22.907Z,6.68
2022-11-17T00:03:03.324Z,6.50
2022-11-17T00:05:31.013Z,4.80
2022-11-17T00:07:58.809Z,4.72
2022-11-17T00:10:26.485Z,5.80
2022-11-17T00:13:08.169Z,3.75
2022-11-17T00:15:35.844Z,3.03
2022-11-17T00:18:17.616Z,3.88
2022-11-17T00:20:59.204Z,5.65
2022-11-17T00:23:47.165Z,3.85
2022-11-17T00:26:22.980Z,4.38
2022-11-17T00:28:54.899Z,6.70
2022-11-17T00:31:36.588Z,4.30
2022-11-17T00:34:07.521Z,3.50
2022-11-17T00:39:04.428Z,5.25
2022-11-17T00:41:32.120Z,3.72
2022-11-17T00:44:00.008Z,4.22
2022-11-17T00:46:27.837Z,3.55
2022-11-17T00:48:55.655Z,3.70
2022-11-17T00:51:23.245Z,3.63
2022-11-17T00:53:51.389Z,4.57
2022-11-17T00:56:19.084Z,3.45
2022-11-17T00:58:46.866Z,3.90
2022-11-17T01:01:14.712Z,3.70
2022-11-17T01:03:42.572Z,4.30
2022-11-17T01:06:14.770Z,5.05
2022-11-17T01:08:42.809Z,4.03
2022-11-17T01:11:18.615Z,5.38
2022-11-17T01:13:47.258Z,3.28
2022-11-17T01:16:16.688Z,3.38
2022-11-17T01:18:45.314Z,8.00
2022-11-17T01:21:14.798Z,6.00
2022-11-17T01:23:43.611Z,4.45
2022-11-17T01:26:12.701Z,4.15
2022-11-17T01:28:40.631Z,3.75
2022-11-17T01:31:12.484Z,5.05
2022-11-17T01:33:40.436Z,3.53
2022-11-17T01:36:13.453Z,3.97
2022-11-17T01:38:41.585Z,6.65
2022-11-17T01:41:17.494Z,6.15
2022-11-17T01:43:49.494Z,4.95
2022-11-17T01:46:31.028Z,6.38
2022-11-17T01:49:05.824Z,3.83
2022-11-17T01:51:34.873Z,4.82
2022-11-17T01:54:03.024Z,4.80
2022-11-17T01:56:36.004Z,5.25
2022-11-17T01:59:08.240Z,5.05
2022-11-17T02:01:55.722Z,3.85
2022-11-17T02:04:40.530Z,5.50
2022-11-17T02:07:20.477Z,5.43
2022-11-17T02:09:48.079Z,6.57
2022-11-17T02:12:15.348Z,5.35
2022-11-17T02:14:42.959Z,5.70
2022-11-17T02:17:14.055Z,3.67
2022-11-17T02:19:43.095Z,4.65
2022-11-17T02:22:30.352Z,5.25
2022-11-17T02:25:14.787Z,6.82
2022-11-17T02:27:54.191Z,5.65
2022-11-17T02:30:22.581Z,5.65
2022-11-17T02:33:07.420Z,4.57
2022-11-17T02:35:47.843Z,4.47
2022-11-17T02:38:23.860Z,5.88
2022-11-17T02:40:58.508Z,4.70
2022-11-17T02:43:42.591Z,4.80
2022-11-17T02:46:15.927Z,6.78
2022-11-17T02:48:52.068Z,4.28
2022-11-17T02:51:20.873Z,5.53
2022-11-17T02:53:52.445Z,4.85
2022-11-17T02:56:19.956Z,5.05
2022-11-17T02:58:47.513Z,6.57
2022-11-17T03:01:31.750Z,4.60
2022-11-17T03:04:20.175Z,5.80
2022-11-17T03:07:00.650Z,6.32
2022-11-17T03:09:51.300Z,5.03
2022-11-17T03:12:32.261Z,5.78
2022-11-17T03:15:03.159Z,4.97
2022-11-17T03:18:03.436Z,5.57
2022-11-17T03:20:35.276Z,5.72
2022-11-17T03:23:12.565Z,4.72
2022-11-17T03:25:40.051Z,5.25
2022-11-17T03:28:08.285Z,5.47
2022-11-17T03:30:37.689Z,5.63
2022-11-17T03:33:08.793Z,4.97
2022-11-17T03:38:07.126Z,5.57
2022-11-17T03:40:34.445Z,5.35
2022-11-17T03:43:04.197Z,4.93
2022-11-17T03:45:34.072Z,5.30
2022-11-17T03:48:22.297Z,4.90
2022-11-17T03:51:13.821Z,6.75
2022-11-17T03:53:41.303Z,4.97
2022-11-17T03:56:29.556Z,4.85
2022-11-17T03:59:09.599Z,5.25
2022-11-17T04:01:36.978Z,5.72
2022-11-17T04:04:04.953Z,5.40
2022-11-17T04:06:32.181Z,6.88
2022-11-17T04:08:59.583Z,4.53
2022-11-17T04:11:40.740Z,5.15
2022-11-17T04:14:22.886Z,5.65
2022-11-17T04:16:50.143Z,6.97
2022-11-17T04:19:17.861Z,6.82
2022-11-17T04:21:45.187Z,5.30
2022-11-17T04:24:12.741Z,8.88
2022-11-17T04:26:53.909Z,5.72
2022-11-17T04:29:21.635Z,6.43
2022-11-17T04:31:48.912Z,7.40
2022-11-17T04:34:16.546Z,6.28
2022-11-17T04:36:44.008Z,6.80
2022-11-17T04:39:12.577Z,6.90
2022-11-17T04:41:54.124Z,5.88
2022-11-17T04:44:26.400Z,5.30
2022-11-17T04:46:54.184Z,6.13
2022-11-17T04:49:22.272Z,6.50
2022-11-17T04:51:49.875Z,5.90
2022-11-17T04:54:18.556Z,5.68
2022-11-17T04:56:45.994Z,5.75
2022-11-17T04:59:13.894Z,6.00
2022-11-17T05:01:41.582Z,6.85
2022-11-17T05:04:10.233Z,5.88
2022-11-17T05:06:42.204Z,6.28
2022-11-17T05:09:14.444Z,5.60
2022-11-17T05:11:55.727Z,5.82
2022-11-17T05:14:24.202Z,6.43
2022-11-17T05:17:10.108Z,5.55
2022-11-17T05:19:42.341Z,5.43
2022-11-17T05:22:23.921Z,7.03
2022-11-17T05:24:52.287Z,6.50
2022-11-17T05:27:20.379Z,6.47
2022-11-17T05:29:47.961Z,5.93
2022-11-17T05:32:15.206Z,5.82
2022-11-17T05:34:42.713Z,8.02
2022-11-17T05:37:10.283Z,6.55
2022-11-17T05:39:37.933Z,5.93
2022-11-17T05:42:05.300Z,9.27
2022-11-17T05:44:32.855Z,5.82
2022-11-17T05:47:00.326Z,5.70
2022-11-17T05:49:28.064Z,6.68
2022-11-17T05:51:55.393Z,6.55
2022-11-17T05:54:23.017Z,5.43
2022-11-17T05:56:52.572Z,9.32
2022-11-17T05:59:34.168Z,5.10
2022-11-17T06:02:01.760Z,6.35
2022-11-17T06:04:29.567Z,7.63
2022-11-17T06:06:59.873Z,9.15
2022-11-17T06:09:32.380Z,18.05
2022-11-17T06:12:05.582Z,8.60
2022-11-17T06:14:34.580Z,13.95
2022-11-17T06:17:04.427Z,9.43
2022-11-17T06:19:35.086Z,9.00
2022-11-17T06:22:12.107Z,8.95
2022-11-17T06:24:43.540Z,9.02
2022-11-17T06:27:14.680Z,9.18
2022-11-17T06:29:44.987Z,9.27
2022-11-17T06:32:16.720Z,13.52
2022-11-17T06:34:44.320Z,10.50
2022-11-17T06:37:11.764Z,11.00
2022-11-17T06:39:39.148Z,9.35
2022-11-17T06:42:06.595Z,8.73
2022-11-17T06:44:33.906Z,9.45
2022-11-17T06:47:01.483Z,10.40
2022-11-17T06:49:29.334Z,11.15
2022-11-17T06:51:56.957Z,11.15
2022-11-17T06:54:24.445Z,10.13
2022-11-17T06:56:52.814Z,9.68
2022-11-17T06:59:20.252Z,12.43
2022-11-17T07:01:47.844Z,14.68
2022-11-17T07:04:15.221Z,11.65
2022-11-17T07:06:42.744Z,10.68
2022-11-17T07:09:10.377Z,10.75
2022-11-17T07:11:38.199Z,11.02
2022-11-17T07:14:05.724Z,9.02
2022-11-17T07:16:33.275Z,8.00
2022-11-17T07:19:03.432Z,23.10
2022-11-17T07:21:31.428Z,9.63
2022-11-17T07:23:58.935Z,9.88
2022-11-17T07:26:26.495Z,10.90
2022-11-17T07:28:54.175Z,8.63
2022-11-17T07:31:22.111Z,9.35
2022-11-17T07:33:50.369Z,9.93
2022-11-17T07:36:18.274Z,11.13
2022-11-17T07:38:45.524Z,10.52
2022-11-17T07:41:13.684Z,9.10
2022-11-17T07:43:41.317Z,10.98
2022-11-17T07:46:13.499Z,11.93
2022-11-17T07:48:41.777Z,12.93
2022-11-17T07:51:09.869Z,13.73
2022-11-17T07:53:37.314Z,8.35
2022-11-17T07:56:09.733Z,14.73
2022-11-17T07:58:37.896Z,11.60
2022-11-17T08:01:06.885Z,12.45
2022-11-17T08:03:34.315Z,14.75
2022-11-17T08:06:05.651Z,10.45
2022-11-17T08:08:33.433Z,12.07
2022-11-17T08:11:08.462Z,10.38
2022-11-17T08:13:35.837Z,11.00
2022-11-17T08:16:03.481Z,10.60
2022-11-17T08:18:31.147Z,11.15
2022-11-17T08:21:06.453Z,10.55
2022-11-17T08:23:34.230Z,9.80
2022-11-17T08:26:02.271Z,16.25
2022-11-17T08:28:29.771Z,11.30
2022-11-17T08:30:57.215Z,10.77
2022-11-17T08:33:24.522Z,11.35
2022-11-17T08:35:51.922Z,7.88
2022-11-17T08:38:19.358Z,9.98
2022-11-17T08:40:47.818Z,11.80
2022-11-17T08:43:15.289Z,9.48
2022-11-17T08:45:43.110Z,11.63
2022-11-17T08:48:10.563Z,9.52
2022-11-17T08:50:38.278Z,10.65
2022-11-17T08:53:05.823Z,11.50
2022-11-17T08:55:41.021Z,9.10
2022-11-17T08:58:09.569Z,10.10
2022-11-17T09:00:37.140Z,10.23
2022-11-17T09:03:08.803Z,9.15
2022-11-17T09:05:40.533Z,8.15
2022-11-17T09:08:38.039Z,8.13
2022-11-17T09:10:55.955Z,14.93
2022-11-17T09:13:23.296Z,10.40
2022-11-17T09:15:51.103Z,10.05
2022-11-17T09:18:18.470Z,9.88
2022-11-17T09:20:46.605Z,10.13
2022-11-17T09:23:13.877Z,7.75
2022-11-17T09:25:41.503Z,12.57
2022-11-17T09:28:08.736Z,9.77
2022-11-17T09:30:37.040Z,12.43
2022-11-17T09:33:04.430Z,10.85
2022-11-17T09:35:32.399Z,6.97
2022-11-17T09:38:01.272Z,8.65
2022-11-17T09:40:33.230Z,9.25
2022-11-17T09:43:09.195Z,8.95
2022-11-17T09:45:37.977Z,8.48
2022-11-17T09:48:40.693Z,8.13
2022-11-17T09:51:10.146Z,7.32
2022-11-17T09:53:57.653Z,8.15
2022-11-17T09:56:27.692Z,7.22
2022-11-17T09:58:59.533Z,9.13
2022-11-17T10:01:28.576Z,9.45
2022-11-17T10:04:00.186Z,8.68
2022-11-17T10:06:29.324Z,7.43
2022-11-17T10:09:11.699Z,8.20
2022-11-17T10:11:41.199Z,8.70
2022-11-17T10:14:08.757Z,8.68
2022-11-17T10:16:53.598Z,8.10
2022-11-17T10:19:22.988Z,7.47
2022-11-17T10:21:57.279Z,7.30
2022-11-17T10:24:43.555Z,8.15
2022-11-17T10:27:30.355Z,7.47
2022-11-17T10:30:02.099Z,7.88
2022-11-17T10:32:31.663Z,9.23
2022-11-17T10:35:13.857Z,6.85
2022-11-17T10:37:43.901Z,8.32
2022-11-17T10:40:25.411Z,6.97
2022-11-17T10:43:13.914Z,6.28
2022-11-17T10:45:55.655Z,7.43
2022-11-17T10:48:38.046Z,6.35
2022-11-17T10:51:09.406Z,9.13
2022-11-17T10:53:46.813Z,9.88
2022-11-17T10:56:20.039Z,8.18
2022-11-17T10:59:13.136Z,6.32
2022-11-17T11:01:45.205Z,7.95
2022-11-17T11:04:36.560Z,7.32
2022-11-17T11:07:13.930Z,7.57
2022-11-17T11:09:52.971Z,7.03
2022-11-17T11:12:30.579Z,9.25
2022-11-17T11:14:58.395Z,7.00
2022-11-17T11:17:27.577Z,9.93
2022-11-17T11:19:55.232Z,8.18
2022-11-17T11:22:32.092Z,9.10
2022-11-17T11:25:02.771Z,8.70
2022-11-17T11:27:59.177Z,8.02
2022-11-17T11:30:26.494Z,8.13
2022-11-17T11:32:57.004Z,9.48
2022-11-17T11:35:27.296Z,6.97
2022-11-17T11:38:08.908Z,8.32
2022-11-17T11:40:41.423Z,6.40
2022-11-17T11:43:32.096Z,6.18
2022-11-17T11:46:06.800Z,7.50
2022-11-17T11:48:34.433Z,7.32
2022-11-17T11:51:17.736Z,6.88
2022-11-17T11:54:11.842Z,7.47
2022-11-17T11:56:40.833Z,7.93
2022-11-17T11:59:36.493Z,8.10
2022-11-17T12:02:13.073Z,7.85
2022-11-17T12:04:57.434Z,8.63
2022-11-17T12:07:34.192Z,7.28
2022-11-17T12:10:29.924Z,9.02
2022-11-17T12:12:57.483Z,7.55
2022-11-17T12:15:26.015Z,8.65
2022-11-17T12:17:56.528Z,8.98
2022-11-17T12:20:38.279Z,8.45
2022-11-17T12:23:17.854Z,7.43
2022-11-17T12:25:53.878Z,6.45
2022-11-17T12:28:29.183Z,6.30
2022-11-17T12:31:08.332Z,5.45
2022-11-17T12:33:54.418Z,7.13
2022-11-17T12:36:30.836Z,5.50
2022-11-17T12:39:00.146Z,5.85
2022-11-17T12:41:47.714Z,5.78
2022-11-17T12:44:37.907Z,7.43
2022-11-17T12:47:21.520Z,5.75
2022-11-17T12:49:52.008Z,7.93
2022-11-17T12:52:45.679Z,7.35
2022-11-17T12:55:17.349Z,7.75
2022-11-17T12:57:47.055Z,7.55
2022-11-17T13:00:22.349Z,6.32
2022-11-17T13:03:03.353Z,6.50
2022-11-17T13:05:31.028Z,4.68
2022-11-17T13:08:22.559Z,7.72
2022-11-17T13:10:50.971Z,6.60
2022-11-17T13:13:23.826Z,6.03
2022-11-17T13:15:52.629Z,7.55
2022-11-17T13:18:23.388Z,6.72
2022-11-17T13:20:50.994Z,6.55
2022-11-17T13:23:26.572Z,5.63
2022-11-17T13:26:10.267Z,5.82
2022-11-17T13:28:38.226Z,6.05
2022-11-17T13:31:05.738Z,7.00
2022-11-17T13:33:39.633Z,8.15
2022-11-17T13:36:19.694Z,7.35
2022-11-17T13:38:48.874Z,7.97
2022-11-17T13:41:17.614Z,7.53
2022-11-17T13:43:46.277Z,7.63
2022-11-17T13:46:15.037Z,6.40
2022-11-17T13:48:44.477Z,8.07
2022-11-17T13:51:38.555Z,8.50
2022-11-17T13:54:12.659Z,12.63
2022-11-17T13:56:46.359Z,10.95
2022-11-17T13:59:30.490Z,9.27
2022-11-17T14:02:20.712Z,7.18
2022-11-17T14:05:05.098Z,8.40
2022-11-17T14:07:38.592Z,6.03
2022-11-17T14:10:20.285Z,7.43
2022-11-17T14:12:50.830Z,7.47
2022-11-17T14:17:54.377Z,9.05
2022-11-17T14:20:25.242Z,4.78
2022-11-17T14:23:02.792Z,5.88
2022-11-17T14:25:38.776Z,7.28
2022-11-17T14:28:16.827Z,11.23
2022-11-17T14:30:47.841Z,9.40
2022-11-17T14:35:42.981Z,17.33
2022-11-17T14:38:15.795Z,11.10
2022-11-17T14:40:43.408Z,13.60
2022-11-17T14:43:10.680Z,15.18
2022-11-17T14:45:38.297Z,12.05
2022-11-17T14:48:08.814Z,12.20
2022-11-17T14:50:36.761Z,13.98
2022-11-17T14:53:04.239Z,13.65
2022-11-17T14:55:31.945Z,8.60
2022-11-17T14:57:59.512Z,10.07
2022-11-17T15:00:27.650Z,9.60
2022-11-17T15:02:55.113Z,9.30
2022-11-17T15:05:23.347Z,7.82
2022-11-17T15:07:50.935Z,8.73
2022-11-17T15:10:18.848Z,9.95
2022-11-17T15:12:46.279Z,9.32
2022-11-17T15:15:14.037Z,9.07
2022-11-17T15:17:41.617Z,7.40
2022-11-17T15:20:10.156Z,7.78
2022-11-17T15:22:37.427Z,6.93
2022-11-17T15:25:05.457Z,9.20
2022-11-17T15:27:32.761Z,7.43
2022-11-17T15:30:00.421Z,7.43
2022-11-17T15:32:27.907Z,7.40
2022-11-17T15:34:55.582Z,8.00
2022-11-17T15:37:23.076Z,9.48
2022-11-17T15:39:50.878Z,8.00
2022-11-17T15:42:18.334Z,6.78
2022-11-17T15:44:46.167Z,7.72
2022-11-17T15:47:13.629Z,7.28
2022-11-17T15:49:42.589Z,9.85
2022-11-17T15:52:09.993Z,11.55
2022-11-17T15:54:37.775Z,8.18
2022-11-17T15:57:05.243Z,7.88
2022-11-17T15:59:33.496Z,7.70
2022-11-17T16:02:08.506Z,6.22
2022-11-17T16:04:36.475Z,8.23
2022-11-17T16:07:04.498Z,7.80
2022-11-17T16:09:33.099Z,7.18
2022-11-17T16:12:00.882Z,7.43
2022-11-17T16:14:28.488Z,7.28
2022-11-17T16:16:55.908Z,11.07
2022-11-17T16:19:23.680Z,12.38
2022-11-17T16:21:51.530Z,13.45
2022-11-17T16:24:19.229Z,11.25
2022-11-17T16:26:47.985Z,11.82
2022-11-17T16:29:16.089Z,10.82
2022-11-17T16:31:43.678Z,13.00
2022-11-17T16:34:13.091Z,9.85
2022-11-17T16:36:41.816Z,10.52
2022-11-17T16:39:13.975Z,11.82
2022-11-17T16:41:43.018Z,10.00
2022-11-17T16:44:12.480Z,11.00
2022-11-17T16:46:45.420Z,10.35
2022-11-17T16:49:15.764Z,12.40
2022-11-17T16:51:55.541Z,10.18
2022-11-17T16:54:23.337Z,11.82
2022-11-17T16:56:50.625Z,9.02
2022-11-17T16:59:18.544Z,13.35
2022-11-17T17:01:46.079Z,10.05
2022-11-17T17:04:14.094Z,9.50
2022-11-17T17:06:42.523Z,9.65
2022-11-17T17:09:10.720Z,16.40
2022-11-17T17:11:38.212Z,13.90
2022-11-17T17:14:08.363Z,15.38
2022-11-17T17:16:36.450Z,12.25
2022-11-17T17:19:05.476Z,16.85
2022-11-17T17:21:35.282Z,14.07
2022-11-17T17:24:03.474Z,12.50
2022-11-17T17:26:31.812Z,14.02
2022-11-17T17:29:00.494Z,13.27
2022-11-17T17:31:32.522Z,13.70
2022-11-17T17:34:00.318Z,15.25
2022-11-17T17:36:27.912Z,15.45
2022-11-17T17:38:57.352Z,12.88
2022-11-17T17:41:26.493Z,14.50
2022-11-17T17:44:01.901Z,10.98
2022-11-17T17:46:29.995Z,16.13
2022-11-17T17:48:57.775Z,11.07
2022-11-17T17:51:26.141Z,12.27
2022-11-17T17:53:58.525Z,11.32
2022-11-17T17:56:26.094Z,12.35
2022-11-17T17:58:57.051Z,11.27
2022-11-17T18:01:26.088Z,12.25
2022-11-17T18:03:59.329Z,12.30
2022-11-17T18:06:26.806Z,12.38
2022-11-17T18:08:54.881Z,13.25
2022-11-17T18:11:22.444Z,9.90
2022-11-17T18:13:51.515Z,13.52
2022-11-17T18:16:22.262Z,13.13
2022-11-17T18:18:50.531Z,14.23
2022-11-17T18:21:18.752Z,12.95
2022-11-17T18:23:46.460Z,12.20
2022-11-17T18:26:21.673Z,10.43
2022-11-17T18:29:05.776Z,10.23
2022-11-17T18:31:34.297Z,10.35
2022-11-17T18:34:03.864Z,10.70
2022-11-17T18:36:31.654Z,12.45
2022-11-17T18:38:59.569Z,9.20
2022-11-17T18:41:27.401Z,9.40
2022-11-17T18:43:55.516Z,12.50
2022-11-17T18:46:24.265Z,9.88
2022-11-17T18:48:52.574Z,11.38
2022-11-17T18:51:21.772Z,13.63
2022-11-17T18:53:50.304Z,11.85
2022-11-17T18:56:19.726Z,9.98
2022-11-17T18:58:47.517Z,12.60
2022-11-17T19:01:17.254Z,9.88
2022-11-17T19:03:46.783Z,11.23
2022-11-17T19:06:14.666Z,10.18
2022-11-17T19:08:42.376Z,8.45
2022-11-17T19:11:09.995Z,9.43
2022-11-17T19:13:39.453Z,10.63
2022-11-17T19:16:17.732Z,9.40
2022-11-17T19:18:46.046Z,9.70
2022-11-17T19:21:18.199Z,8.50
2022-11-17T19:23:51.375Z,12.45
2022-11-17T19:26:24.706Z,10.68
2022-11-17T19:28:57.706Z,11.80
2022-11-17T19:31:26.301Z,11.23
2022-11-17T19:33:54.283Z,10.35
2022-11-17T19:36:24.117Z,9.02
2022-11-17T19:38:55.169Z,9.07
2022-11-17T19:41:30.320Z,10.90
2022-11-17T19:44:04.120Z,9.10
2022-11-17T19:46:32.091Z,11.02
2022-11-17T19:49:00.000Z,10.48
2022-11-17T19:51:32.253Z,10.95
2022-11-17T19:54:03.214Z,10.77
2022-11-17T19:56:30.801Z,12.02
2022-11-17T19:58:59.000Z,10.68
2022-11-17T20:01:27.763Z,9.48
2022-11-17T20:03:56.000Z,11.65
2022-11-17T20:06:27.311Z,11.18
2022-11-17T20:08:56.092Z,11.35
2022-11-17T20:11:27.875Z,10.98
2022-11-17T20:13:56.008Z,10.15
2022-11-17T20:16:25.410Z,9.60
2022-11-17T20:18:57.553Z,10.15
2022-11-17T20:21:25.908Z,10.07
2022-11-17T20:23:54.405Z,12.35
2022-11-17T20:26:23.028Z,10.95
2022-11-17T20:28:51.084Z,11.02
2022-11-17T20:31:20.837Z,10.55
2022-11-17T20:33:48.956Z,11.88
2022-11-17T20:36:20.591Z,9.50
2022-11-17T20:38:52.031Z,12.18
2022-11-17T20:41:21.240Z,10.25
2022-11-17T20:43:49.918Z,9.77
2022-11-17T20:46:17.708Z,9.35
2022-11-17T20:48:45.417Z,10.00
2022-11-17T20:51:14.841Z,9.95
2022-11-17T20:53:42.453Z,12.32
2022-11-17T20:56:11.105Z,12.02
2022-11-17T20:58:38.816Z,9.13
2022-11-17T21:01:16.768Z,9.93
2022-11-17T21:03:45.490Z,10.02
2022-11-17T21:06:13.354Z,10.70
2022-11-17T21:08:41.494Z,8.45
2022-11-17T21:11:10.439Z,10.48
2022-11-17T21:13:38.781Z,10.00
2022-11-17T21:16:06.288Z,10.70
2022-11-17T21:18:34.321Z,10.93
2022-11-17T21:21:03.853Z,10.38
2022-11-17T21:23:31.454Z,9.85
2022-11-17T21:26:02.521Z,8.57
2022-11-17T21:28:30.048Z,10.43
2022-11-17T21:31:08.074Z,10.80
2022-11-17T21:33:36.270Z,12.20
2022-11-17T21:36:05.005Z,9.18
2022-11-17T21:38:32.695Z,8.82
2022-11-17T21:41:04.620Z,10.93
2022-11-17T21:43:32.289Z,8.63
2022-11-17T21:46:03.755Z,10.15
2022-11-17T21:48:31.363Z,11.40
2022-11-17T21:50:58.901Z,12.65
2022-11-17T21:53:27.791Z,9.00
2022-11-17T21:56:01.348Z,10.38
2022-11-17T21:58:29.500Z,10.10
2022-11-17T22:00:57.007Z,10.00
2022-11-17T22:03:24.904Z,9.68
2022-11-17T22:05:54.795Z,8.57
2022-11-17T22:08:24.639Z,8.55
2022-11-17T22:10:51.998Z,10.07
2022-11-17T22:13:19.725Z,9.15
2022-11-17T22:15:47.013Z,10.48
2022-11-17T22:18:14.761Z,9.73
2022-11-17T22:20:42.650Z,10.25
2022-11-17T22:23:10.741Z,8.50
2022-11-17T22:25:45.385Z,7.82
2022-11-17T22:28:14.803Z,9.02
2022-11-17T22:30:42.076Z,8.20
2022-11-17T22:33:09.739Z,9.15
2022-11-17T22:35:38.533Z,8.85
2022-11-17T22:38:05.977Z,7.53
2022-11-17T22:40:33.637Z,10.13
2022-11-17T22:43:04.324Z,7.40
2022-11-17T22:47:59.725Z,7.78
2022-11-17T22:50:27.087Z,9.35
2022-11-17T22:52:54.922Z,9.40
2022-11-17T22:55:22.195Z,9.48
2022-11-17T22:57:50.958Z,8.35
2022-11-17T23:00:18.606Z,8.85
2022-11-17T23:02:46.303Z,9.43
2022-11-17T23:05:13.688Z,8.55
2022-11-17T23:07:41.266Z,10.75
2022-11-17T23:10:09.218Z,9.93
2022-11-17T23:12:37.867Z,10.23
2022-11-17T23:15:06.274Z,10.27
2022-11-17T23:17:33.784Z,9.00
2022-11-17T23:20:01.387Z,7.85
2022-11-17T23:22:28.898Z,9.40
2022-11-17T23:24:56.158Z,9.93
2022-11-17T23:27:23.719Z,9.23
2022-11-17T23:29:51.079Z,9.80
2022-11-17T23:32:18.599Z,7.72
2022-11-17T23:34:46.121Z,9.80
2022-11-17T23:37:13.741Z,8.57
2022-11-17T23:39:41.023Z,18.00
2022-11-17T23:42:08.518Z,9.07
2022-11-17T23:44:35.769Z,8.00
2022-11-17T23:47:03.684Z,9.90
2022-11-17T23:49:31.461Z,11.52
2022-11-17T23:51:59.000Z,9.35
2022-11-17T23:54:26.283Z,10.18
2022-11-17T23:56:53.740Z,9.43
2022-11-17T23:59:21.350Z,14.45
